sensor_id;sensor_type;location;lat;lon;timestamp;pressure;altitude;pressure_sealevel;temperature;humidity
77019;BME280;66044;53.142;17.962;2023-01-10T00:00:30;100139.11;;;4.75;78.21
77019;BME280;66044;53.142;17.962;2023-01-10T00:03:21;100141.36;;;4.84;78.22
77019;BME280;66044;53.142;17.962;2023-01-10T00:05:49;100146.27;;;4.90;78.25
77019;BME280;66044;53.142;17.962;2023-01-10T00:08:16;100151.66;;;4.97;78.27
77019;BME280;66044;53.142;17.962;2023-01-10T00:10:42;100152.46;;;5.03;78.51
77019;BME280;66044;53.142;17.962;2023-01-10T00:13:14;100153.97;;;5.08;78.41
77019;BME280;66044;53.142;17.962;2023-01-10T00:15:50;100151.96;;;5.12;78.44
77019;BME280;66044;53.142;17.962;2023-01-10T00:18:16;100151.33;;;5.13;78.55
77019;BME280;66044;53.142;17.962;2023-01-10T00:20:42;100154.53;;;5.13;78.55
77019;BME280;66044;53.142;17.962;2023-01-10T00:23:11;100160.46;;;5.11;78.63
77019;BME280;66044;53.142;17.962;2023-01-10T00:25:38;100161.27;;;5.12;78.66
77019;BME280;66044;53.142;17.962;2023-01-10T00:28:07;100161.92;;;5.16;78.76
77019;BME280;66044;53.142;17.962;2023-01-10T00:30:51;100166.48;;;5.21;78.61
77019;BME280;66044;53.142;17.962;2023-01-10T00:33:27;100165.78;;;5.29;78.69
77019;BME280;66044;53.142;17.962;2023-01-10T00:35:53;100173.19;;;5.35;78.53
77019;BME280;66044;53.142;17.962;2023-01-10T00:38:18;100172.80;;;5.38;78.56
77019;BME280;66044;53.142;17.962;2023-01-10T00:40:45;100178.88;;;5.38;78.49
77019;BME280;66044;53.142;17.962;2023-01-10T00:43:11;100183.08;;;5.38;78.44
77019;BME280;66044;53.142;17.962;2023-01-10T00:45:56;100190.06;;;5.35;78.48
77019;BME280;66044;53.142;17.962;2023-01-10T00:48:22;100193.92;;;5.33;78.57
77019;BME280;66044;53.142;17.962;2023-01-10T00:50:48;100194.00;;;5.31;78.59
77019;BME280;66044;53.142;17.962;2023-01-10T00:53:14;100196.52;;;5.33;78.49
77019;BME280;66044;53.142;17.962;2023-01-10T00:55:40;100201.84;;;5.35;78.46
77019;BME280;66044;53.142;17.962;2023-01-10T00:58:06;100206.06;;;5.37;78.40
77019;BME280;66044;53.142;17.962;2023-01-10T01:00:39;100208.39;;;5.37;78.43
77019;BME280;66044;53.142;17.962;2023-01-10T01:03:06;100210.80;;;5.34;78.27
77019;BME280;66044;53.142;17.962;2023-01-10T01:05:39;100216.73;;;5.31;78.40
77019;BME280;66044;53.142;17.962;2023-01-10T01:08:05;100219.00;;;5.27;78.52
77019;BME280;66044;53.142;17.962;2023-01-10T01:10:31;100225.05;;;5.26;78.45
77019;BME280;66044;53.142;17.962;2023-01-10T01:13:01;100227.55;;;5.24;78.57
77019;BME280;66044;53.142;17.962;2023-01-10T01:15:30;100225.22;;;5.19;78.55
77019;BME280;66044;53.142;17.962;2023-01-10T01:17:56;100233.83;;;5.18;78.57
77019;BME280;66044;53.142;17.962;2023-01-10T01:20:22;100237.61;;;5.18;78.59
77019;BME280;66044;53.142;17.962;2023-01-10T01:22:47;100236.25;;;5.21;78.54
77019;BME280;66044;53.142;17.962;2023-01-10T01:25:14;100235.81;;;5.24;78.46
77019;BME280;66044;53.142;17.962;2023-01-10T01:27:39;100237.92;;;5.29;78.59
77019;BME280;66044;53.142;17.962;2023-01-10T01:30:07;100239.63;;;5.32;78.47
77019;BME280;66044;53.142;17.962;2023-01-10T01:32:34;100245.36;;;5.35;78.48
77019;BME280;66044;53.142;17.962;2023-01-10T01:35:00;100244.13;;;5.33;78.66
77019;BME280;66044;53.142;17.962;2023-01-10T01:37:26;100246.31;;;5.31;78.61
77019;BME280;66044;53.142;17.962;2023-01-10T01:39:52;100252.03;;;5.30;78.50
77019;BME280;66044;53.142;17.962;2023-01-10T01:42:23;100250.84;;;5.28;78.62
77019;BME280;66044;53.142;17.962;2023-01-10T01:47:58;100256.63;;;5.29;78.61
77019;BME280;66044;53.142;17.962;2023-01-10T01:50:50;100264.52;;;5.31;78.51
77019;BME280;66044;53.142;17.962;2023-01-10T01:53:27;100265.52;;;5.32;78.40
77019;BME280;66044;53.142;17.962;2023-01-10T01:55:56;100258.06;;;5.32;78.37
77019;BME280;66044;53.142;17.962;2023-01-10T01:58:32;100257.96;;;5.31;78.47
77019;BME280;66044;53.142;17.962;2023-01-10T02:01:01;100262.66;;;5.31;78.41
77019;BME280;66044;53.142;17.962;2023-01-10T02:03:28;100264.43;;;5.30;78.40
77019;BME280;66044;53.142;17.962;2023-01-10T02:05:54;100266.60;;;5.28;78.31
77019;BME280;66044;53.142;17.962;2023-01-10T02:08:20;100271.55;;;5.24;78.50
77019;BME280;66044;53.142;17.962;2023-01-10T02:11:08;100270.48;;;5.21;78.28
77019;BME280;66044;53.142;17.962;2023-01-10T02:13:37;100269.02;;;5.22;78.46
77019;BME280;66044;53.142;17.962;2023-01-10T02:16:04;100269.52;;;5.24;78.33
77019;BME280;66044;53.142;17.962;2023-01-10T02:18:30;100276.36;;;5.27;78.26
77019;BME280;66044;53.142;17.962;2023-01-10T02:24:10;100288.55;;;5.31;78.17
77019;BME280;66044;53.142;17.962;2023-01-10T02:26:59;100295.38;;;5.29;78.01
77019;BME280;66044;53.142;17.962;2023-01-10T02:32:53;100312.27;;;5.24;78.18
77019;BME280;66044;53.142;17.962;2023-01-10T02:35:33;100321.88;;;5.20;78.06
77019;BME280;66044;53.142;17.962;2023-01-10T02:41:13;100323.03;;;5.14;78.18
77019;BME280;66044;53.142;17.962;2023-01-10T02:43:50;100321.96;;;5.14;77.88
77019;BME280;66044;53.142;17.962;2023-01-10T02:46:21;100325.59;;;5.13;77.76
77019;BME280;66044;53.142;17.962;2023-01-10T02:48:53;100328.59;;;5.12;77.95
77019;BME280;66044;53.142;17.962;2023-01-10T02:51:24;100332.05;;;5.10;77.80
77019;BME280;66044;53.142;17.962;2023-01-10T02:53:56;100333.79;;;5.06;77.82
77019;BME280;66044;53.142;17.962;2023-01-10T02:56:42;100335.48;;;4.98;77.86
77019;BME280;66044;53.142;17.962;2023-01-10T03:02:39;100340.64;;;4.89;78.03
77019;BME280;66044;53.142;17.962;2023-01-10T03:07:55;100357.22;;;4.83;78.10
77019;BME280;66044;53.142;17.962;2023-01-10T03:10:37;100365.71;;;4.81;78.14
77019;BME280;66044;53.142;17.962;2023-01-10T03:13:08;100375.95;;;4.83;78.04
77019;BME280;66044;53.142;17.962;2023-01-10T03:15:39;100371.33;;;4.86;77.95
77019;BME280;66044;53.142;17.962;2023-01-10T03:18:12;100376.14;;;4.89;77.86
77019;BME280;66044;53.142;17.962;2023-01-10T03:20:41;100374.40;;;4.92;77.92
77019;BME280;66044;53.142;17.962;2023-01-10T03:23:10;100376.76;;;4.95;77.87
77019;BME280;66044;53.142;17.962;2023-01-10T03:25:38;100382.46;;;4.96;77.94
77019;BME280;66044;53.142;17.962;2023-01-10T03:28:15;100384.13;;;4.97;77.95
77019;BME280;66044;53.142;17.962;2023-01-10T03:30:49;100386.52;;;4.98;77.88
77019;BME280;66044;53.142;17.962;2023-01-10T03:33:22;100385.81;;;4.96;77.87
77019;BME280;66044;53.142;17.962;2023-01-10T03:36:07;100385.03;;;4.93;78.01
77019;BME280;66044;53.142;17.962;2023-01-10T03:38:50;100386.84;;;4.87;78.20
77019;BME280;66044;53.142;17.962;2023-01-10T03:44:26;100389.80;;;4.82;77.99
77019;BME280;66044;53.142;17.962;2023-01-10T03:47:27;100393.13;;;4.79;77.97
77019;BME280;66044;53.142;17.962;2023-01-10T03:49:59;100391.02;;;4.77;78.02
77019;BME280;66044;53.142;17.962;2023-01-10T03:52:26;100393.05;;;4.77;78.07
77019;BME280;66044;53.142;17.962;2023-01-10T03:54:52;100390.76;;;4.74;78.14
77019;BME280;66044;53.142;17.962;2023-01-10T03:57:21;100392.04;;;4.70;78.19
77019;BME280;66044;53.142;17.962;2023-01-10T03:59:51;100389.63;;;4.65;78.24
77019;BME280;66044;53.142;17.962;2023-01-10T04:02:17;100390.32;;;4.62;78.25
77019;BME280;66044;53.142;17.962;2023-01-10T04:04:47;100399.33;;;4.55;78.20
77019;BME280;66044;53.142;17.962;2023-01-10T04:07:12;100406.04;;;4.47;78.45
77019;BME280;66044;53.142;17.962;2023-01-10T04:09:38;100417.25;;;4.48;78.37
77019;BME280;66044;53.142;17.962;2023-01-10T04:12:04;100423.48;;;4.48;78.27
77019;BME280;66044;53.142;17.962;2023-01-10T04:14:30;100433.16;;;4.51;78.18
77019;BME280;66044;53.142;17.962;2023-01-10T04:16:57;100437.20;;;4.55;78.37
77019;BME280;66044;53.142;17.962;2023-01-10T04:19:23;100441.10;;;4.60;78.13
77019;BME280;66044;53.142;17.962;2023-01-10T04:21:49;100444.79;;;4.56;78.16
77019;BME280;66044;53.142;17.962;2023-01-10T04:24:14;100441.89;;;4.51;78.12
77019;BME280;66044;53.142;17.962;2023-01-10T04:26:40;100442.59;;;4.47;78.19
77019;BME280;66044;53.142;17.962;2023-01-10T04:29:06;100444.48;;;4.42;78.10
77019;BME280;66044;53.142;17.962;2023-01-10T04:31:33;100451.07;;;4.38;78.36
77019;BME280;66044;53.142;17.962;2023-01-10T04:33:59;100456.48;;;4.33;78.31
77019;BME280;66044;53.142;17.962;2023-01-10T04:36:28;100454.86;;;4.31;78.25
77019;BME280;66044;53.142;17.962;2023-01-10T04:38:54;100468.39;;;4.33;78.39
77019;BME280;66044;53.142;17.962;2023-01-10T04:41:19;100470.23;;;4.37;78.18
77019;BME280;66044;53.142;17.962;2023-01-10T04:43:45;100479.48;;;4.42;78.14
77019;BME280;66044;53.142;17.962;2023-01-10T04:46:11;100481.04;;;4.44;78.08
77019;BME280;66044;53.142;17.962;2023-01-10T04:48:37;100490.14;;;4.44;77.94
77019;BME280;66044;53.142;17.962;2023-01-10T04:51:03;100494.61;;;4.43;77.87
77019;BME280;66044;53.142;17.962;2023-01-10T04:53:29;100500.26;;;4.36;77.65
77019;BME280;66044;53.142;17.962;2023-01-10T04:56:01;100510.85;;;4.26;77.93
77019;BME280;66044;53.142;17.962;2023-01-10T04:58:27;100516.46;;;4.18;77.96
77019;BME280;66044;53.142;17.962;2023-01-10T05:00:54;100517.16;;;4.08;78.16
77019;BME280;66044;53.142;17.962;2023-01-10T05:03:20;100518.04;;;4.03;78.07
77019;BME280;66044;53.142;17.962;2023-01-10T05:05:45;100517.09;;;4.02;78.13
77019;BME280;66044;53.142;17.962;2023-01-10T05:08:11;100522.29;;;4.03;78.04
77019;BME280;66044;53.142;17.962;2023-01-10T05:10:37;100522.88;;;4.02;78.09
77019;BME280;66044;53.142;17.962;2023-01-10T05:13:03;100530.94;;;3.99;78.18
77019;BME280;66044;53.142;17.962;2023-01-10T05:15:29;100533.48;;;3.95;78.07
77019;BME280;66044;53.142;17.962;2023-01-10T05:17:59;100543.01;;;3.91;78.20
77019;BME280;66044;53.142;17.962;2023-01-10T05:20:25;100546.92;;;3.87;78.16
77019;BME280;66044;53.142;17.962;2023-01-10T05:22:51;100548.34;;;3.83;78.27
77019;BME280;66044;53.142;17.962;2023-01-10T05:25:17;100549.07;;;3.82;78.23
77019;BME280;66044;53.142;17.962;2023-01-10T05:27:43;100554.59;;;3.77;77.87
77019;BME280;66044;53.142;17.962;2023-01-10T05:30:10;100557.56;;;3.71;77.96
77019;BME280;66044;53.142;17.962;2023-01-10T05:32:37;100561.20;;;3.69;77.84
77019;BME280;66044;53.142;17.962;2023-01-10T05:35:03;100566.45;;;3.70;77.71
77019;BME280;66044;53.142;17.962;2023-01-10T05:37:29;100570.69;;;3.71;77.74
77019;BME280;66044;53.142;17.962;2023-01-10T05:39:55;100576.77;;;3.69;77.67
77019;BME280;66044;53.142;17.962;2023-01-10T05:42:20;100582.95;;;3.68;77.91
77019;BME280;66044;53.142;17.962;2023-01-10T05:44:46;100583.52;;;3.69;77.96
77019;BME280;66044;53.142;17.962;2023-01-10T05:47:12;100587.59;;;3.70;78.02
77019;BME280;66044;53.142;17.962;2023-01-10T05:49:38;100594.04;;;3.69;77.89
77019;BME280;66044;53.142;17.962;2023-01-10T05:52:04;100598.00;;;3.66;77.93
77019;BME280;66044;53.142;17.962;2023-01-10T05:54:30;100600.61;;;3.66;77.90
77019;BME280;66044;53.142;17.962;2023-01-10T05:56:56;100605.51;;;3.69;77.95
77019;BME280;66044;53.142;17.962;2023-01-10T05:59:22;100609.13;;;3.74;78.01
77019;BME280;66044;53.142;17.962;2023-01-10T06:01:48;100609.23;;;3.79;77.80
77019;BME280;66044;53.142;17.962;2023-01-10T06:04:14;100612.16;;;3.83;77.79
77019;BME280;66044;53.142;17.962;2023-01-10T06:06:39;100609.73;;;3.86;77.67
77019;BME280;66044;53.142;17.962;2023-01-10T06:09:06;100618.38;;;3.89;77.69
77019;BME280;66044;53.142;17.962;2023-01-10T06:11:32;100625.94;;;3.91;77.91
77019;BME280;66044;53.142;17.962;2023-01-10T06:14:03;100629.27;;;3.91;77.80
77019;BME280;66044;53.142;17.962;2023-01-10T06:16:29;100634.86;;;3.89;77.96
77019;BME280;66044;53.142;17.962;2023-01-10T06:18:55;100645.17;;;3.88;77.82
77019;BME280;66044;53.142;17.962;2023-01-10T06:21:20;100647.78;;;3.87;77.98
77019;BME280;66044;53.142;17.962;2023-01-10T06:23:46;100652.67;;;3.86;77.97
77019;BME280;66044;53.142;17.962;2023-01-10T06:26:12;100660.05;;;3.87;77.89
77019;BME280;66044;53.142;17.962;2023-01-10T06:28:38;100660.18;;;3.90;78.00
77019;BME280;66044;53.142;17.962;2023-01-10T06:31:08;100657.75;;;3.94;77.71
77019;BME280;66044;53.142;17.962;2023-01-10T06:33:38;100660.29;;;4.00;77.96
77019;BME280;66044;53.142;17.962;2023-01-10T06:36:06;100667.02;;;4.06;77.71
77019;BME280;66044;53.142;17.962;2023-01-10T06:38:32;100671.04;;;4.09;77.63
77019;BME280;66044;53.142;17.962;2023-01-10T06:40:57;100681.23;;;4.11;77.75
77019;BME280;66044;53.142;17.962;2023-01-10T06:43:23;100679.90;;;4.12;77.74
77019;BME280;66044;53.142;17.962;2023-01-10T06:45:49;100683.81;;;4.13;77.75
77019;BME280;66044;53.142;17.962;2023-01-10T06:48:15;100694.40;;;4.13;77.65
77019;BME280;66044;53.142;17.962;2023-01-10T06:50:41;100698.95;;;4.09;77.71
77019;BME280;66044;53.142;17.962;2023-01-10T06:53:07;100704.23;;;4.06;77.83
77019;BME280;66044;53.142;17.962;2023-01-10T06:55:33;100708.42;;;4.03;77.65
77019;BME280;66044;53.142;17.962;2023-01-10T06:58:01;100711.44;;;4.04;77.71
77019;BME280;66044;53.142;17.962;2023-01-10T07:00:28;100714.80;;;4.08;77.59
77019;BME280;66044;53.142;17.962;2023-01-10T07:02:57;100713.04;;;4.13;77.68
77019;BME280;66044;53.142;17.962;2023-01-10T07:05:23;100720.65;;;4.17;77.47
77019;BME280;66044;53.142;17.962;2023-01-10T07:07:49;100724.74;;;4.19;77.44
77019;BME280;66044;53.142;17.962;2023-01-10T07:10:15;100730.02;;;4.22;77.46
77019;BME280;66044;53.142;17.962;2023-01-10T07:12:41;100734.15;;;4.24;77.49
77019;BME280;66044;53.142;17.962;2023-01-10T07:15:07;100737.33;;;4.25;77.53
77019;BME280;66044;53.142;17.962;2023-01-10T07:17:33;100738.98;;;4.25;77.44
77019;BME280;66044;53.142;17.962;2023-01-10T07:20:03;100744.98;;;4.25;77.51
77019;BME280;66044;53.142;17.962;2023-01-10T07:22:29;100741.39;;;4.22;77.39
77019;BME280;66044;53.142;17.962;2023-01-10T07:24:54;100748.03;;;4.19;77.63
77019;BME280;66044;53.142;17.962;2023-01-10T07:27:20;100748.34;;;4.20;77.46
77019;BME280;66044;53.142;17.962;2023-01-10T07:29:46;100750.67;;;4.25;77.48
77019;BME280;66044;53.142;17.962;2023-01-10T07:32:12;100748.27;;;4.31;77.19
77019;BME280;66044;53.142;17.962;2023-01-10T07:34:37;100751.39;;;4.33;77.23
77019;BME280;66044;53.142;17.962;2023-01-10T07:37:03;100752.13;;;4.34;77.15
77019;BME280;66044;53.142;17.962;2023-01-10T07:39:29;100756.33;;;4.34;77.18
77019;BME280;66044;53.142;17.962;2023-01-10T07:41:56;100761.44;;;4.35;77.31
77019;BME280;66044;53.142;17.962;2023-01-10T07:44:22;100763.61;;;4.34;77.16
77019;BME280;66044;53.142;17.962;2023-01-10T07:46:48;100764.95;;;4.34;77.22
77019;BME280;66044;53.142;17.962;2023-01-10T07:49:14;100773.89;;;4.34;77.24
77019;BME280;66044;53.142;17.962;2023-01-10T07:51:40;100775.69;;;4.34;77.24
77019;BME280;66044;53.142;17.962;2023-01-10T07:54:06;100774.96;;;4.36;77.12
77019;BME280;66044;53.142;17.962;2023-01-10T07:56:31;100777.27;;;4.41;77.03
77019;BME280;66044;53.142;17.962;2023-01-10T07:58:57;100783.43;;;4.46;76.97
77019;BME280;66044;53.142;17.962;2023-01-10T08:01:23;100791.91;;;4.50;77.09
77019;BME280;66044;53.142;17.962;2023-01-10T08:03:50;100797.35;;;4.49;77.00
77019;BME280;66044;53.142;17.962;2023-01-10T08:06:16;100799.76;;;4.47;76.94
77019;BME280;66044;53.142;17.962;2023-01-10T08:08:42;100803.91;;;4.46;77.12
77019;BME280;66044;53.142;17.962;2023-01-10T08:11:08;100804.08;;;4.45;77.04
77019;BME280;66044;53.142;17.962;2023-01-10T08:13:34;100807.14;;;4.43;77.20
77019;BME280;66044;53.142;17.962;2023-01-10T08:16:04;100806.36;;;4.42;77.13
77019;BME280;66044;53.142;17.962;2023-01-10T08:18:30;100809.48;;;4.41;77.02
77019;BME280;66044;53.142;17.962;2023-01-10T08:20:56;100812.21;;;4.41;76.97
77019;BME280;66044;53.142;17.962;2023-01-10T08:23:22;100813.98;;;4.44;76.97
77019;BME280;66044;53.142;17.962;2023-01-10T08:25:48;100820.31;;;4.50;77.00
77019;BME280;66044;53.142;17.962;2023-01-10T08:28:16;100823.50;;;4.56;76.93
77019;BME280;66044;53.142;17.962;2023-01-10T08:30:42;100830.10;;;4.60;77.00
77019;BME280;66044;53.142;17.962;2023-01-10T08:33:09;100829.80;;;4.65;76.95
77019;BME280;66044;53.142;17.962;2023-01-10T08:35:40;100831.43;;;4.70;77.14
77019;BME280;66044;53.142;17.962;2023-01-10T08:38:07;100834.23;;;4.77;77.16
77019;BME280;66044;53.142;17.962;2023-01-10T08:40:34;100838.06;;;4.82;77.09
77019;BME280;66044;53.142;17.962;2023-01-10T08:43:03;100842.12;;;4.86;76.89
77019;BME280;66044;53.142;17.962;2023-01-10T08:45:33;100850.74;;;4.90;76.94
77019;BME280;66044;53.142;17.962;2023-01-10T08:47:59;100855.36;;;4.91;76.87
77019;BME280;66044;53.142;17.962;2023-01-10T08:50:26;100860.59;;;4.96;76.85
77019;BME280;66044;53.142;17.962;2023-01-10T08:52:52;100861.20;;;5.02;76.81
77019;BME280;66044;53.142;17.962;2023-01-10T08:55:18;100866.70;;;5.12;76.79
77019;BME280;66044;53.142;17.962;2023-01-10T08:57:44;100870.98;;;5.20;76.51
77019;BME280;66044;53.142;17.962;2023-01-10T09:00:10;100874.77;;;5.27;76.64
77019;BME280;66044;53.142;17.962;2023-01-10T09:02:39;100877.29;;;5.33;76.58
77019;BME280;66044;53.142;17.962;2023-01-10T09:05:05;100881.14;;;5.41;76.50
77019;BME280;66044;53.142;17.962;2023-01-10T09:07:31;100883.34;;;5.49;76.51
77019;BME280;66044;53.142;17.962;2023-01-10T09:09:57;100887.05;;;5.55;76.43
77019;BME280;66044;53.142;17.962;2023-01-10T09:12:24;100889.45;;;5.58;76.40
77019;BME280;66044;53.142;17.962;2023-01-10T09:15:09;100897.23;;;5.63;76.20
77019;BME280;66044;53.142;17.962;2023-01-10T09:17:35;100900.12;;;5.70;76.25
77019;BME280;66044;53.142;17.962;2023-01-10T09:20:01;100907.09;;;5.78;76.16
77019;BME280;66044;53.142;17.962;2023-01-10T09:22:38;100910.34;;;5.86;76.14
77019;BME280;66044;53.142;17.962;2023-01-10T09:25:05;100911.95;;;5.92;76.08
77019;BME280;66044;53.142;17.962;2023-01-10T09:27:31;100918.17;;;5.96;76.05
77019;BME280;66044;53.142;17.962;2023-01-10T09:29:57;100922.63;;;5.99;76.13
77019;BME280;66044;53.142;17.962;2023-01-10T09:32:24;100927.75;;;6.02;76.19
77019;BME280;66044;53.142;17.962;2023-01-10T09:34:50;100929.80;;;6.04;76.15
77019;BME280;66044;53.142;17.962;2023-01-10T09:37:16;100928.42;;;6.07;76.16
77019;BME280;66044;53.142;17.962;2023-01-10T09:39:42;100929.95;;;6.09;76.10
77019;BME280;66044;53.142;17.962;2023-01-10T09:45:14;100934.65;;;6.16;75.96
77019;BME280;66044;53.142;17.962;2023-01-10T09:47:47;100935.21;;;6.21;75.81
77019;BME280;66044;53.142;17.962;2023-01-10T09:53:05;100934.31;;;6.33;75.67
77019;BME280;66044;53.142;17.962;2023-01-10T09:55:35;100934.39;;;6.36;75.55
77019;BME280;66044;53.142;17.962;2023-01-10T09:58:12;100933.89;;;6.37;75.66
77019;BME280;66044;53.142;17.962;2023-01-10T10:00:55;100928.63;;;6.39;75.54
77019;BME280;66044;53.142;17.962;2023-01-10T10:03:42;100935.09;;;6.42;75.55
77019;BME280;66044;53.142;17.962;2023-01-10T10:06:11;100936.87;;;6.45;75.49
77019;BME280;66044;53.142;17.962;2023-01-10T10:08:39;100940.68;;;6.46;75.41
77019;BME280;66044;53.142;17.962;2023-01-10T10:14:06;100939.48;;;6.47;75.65
77019;BME280;66044;53.142;17.962;2023-01-10T10:20:21;100936.93;;;6.56;75.37
77019;BME280;66044;53.142;17.962;2023-01-10T10:22:53;100940.41;;;6.63;75.58
77019;BME280;66044;53.142;17.962;2023-01-10T10:25:49;100942.55;;;6.67;75.36
77019;BME280;66044;53.142;17.962;2023-01-10T10:36:37;100949.34;;;6.66;75.33
77019;BME280;66044;53.142;17.962;2023-01-10T10:39:13;100950.51;;;6.62;75.40
77019;BME280;66044;53.142;17.962;2023-01-10T10:41:43;100957.33;;;6.61;75.22
77019;BME280;66044;53.142;17.962;2023-01-10T10:44:36;100958.15;;;6.65;75.25
77019;BME280;66044;53.142;17.962;2023-01-10T10:47:26;100961.95;;;6.71;75.40
77019;BME280;66044;53.142;17.962;2023-01-10T10:52:39;100957.72;;;6.77;75.01
77019;BME280;66044;53.142;17.962;2023-01-10T10:55:13;100960.80;;;6.76;75.07
77019;BME280;66044;53.142;17.962;2023-01-10T10:57:49;100963.48;;;6.73;74.96
77019;BME280;66044;53.142;17.962;2023-01-10T11:00:21;100965.85;;;6.70;75.08
77019;BME280;66044;53.142;17.962;2023-01-10T11:02:52;100970.37;;;6.69;75.07
77019;BME280;66044;53.142;17.962;2023-01-10T11:05:25;100969.81;;;6.67;75.00
77019;BME280;66044;53.142;17.962;2023-01-10T11:07:58;100973.10;;;6.65;75.18
77019;BME280;66044;53.142;17.962;2023-01-10T11:10:26;100975.06;;;6.66;74.99
77019;BME280;66044;53.142;17.962;2023-01-10T11:13:07;100981.00;;;6.72;75.08
77019;BME280;66044;53.142;17.962;2023-01-10T11:15:47;100988.58;;;6.79;75.11
77019;BME280;66044;53.142;17.962;2023-01-10T11:18:21;100995.15;;;6.84;75.11
77019;BME280;66044;53.142;17.962;2023-01-10T11:23:42;101003.41;;;6.83;74.99
77019;BME280;66044;53.142;17.962;2023-01-10T11:26:38;101002.48;;;6.81;75.15
77019;BME280;66044;53.142;17.962;2023-01-10T11:29:16;101006.04;;;6.78;74.97
77019;BME280;66044;53.142;17.962;2023-01-10T11:31:45;101010.25;;;6.79;75.17
77019;BME280;66044;53.142;17.962;2023-01-10T11:34:33;101016.55;;;6.79;75.00
77019;BME280;66044;53.142;17.962;2023-01-10T11:37:16;101023.69;;;6.77;75.23
77019;BME280;66044;53.142;17.962;2023-01-10T11:39:43;101022.35;;;6.80;75.19
77019;BME280;66044;53.142;17.962;2023-01-10T11:44:49;101020.48;;;6.86;75.05
77019;BME280;66044;53.142;17.962;2023-01-10T11:47:16;101020.45;;;6.89;74.96
77019;BME280;66044;53.142;17.962;2023-01-10T11:49:45;101024.21;;;6.93;75.11
77019;BME280;66044;53.142;17.962;2023-01-10T11:52:20;101032.86;;;6.97;75.20
77019;BME280;66044;53.142;17.962;2023-01-10T11:54:48;101036.46;;;6.99;74.94
77019;BME280;66044;53.142;17.962;2023-01-10T12:00:12;101045.27;;;6.97;75.17
77019;BME280;66044;53.142;17.962;2023-01-10T12:02:45;101047.90;;;6.92;75.03
77019;BME280;66044;53.142;17.962;2023-01-10T12:05:18;101045.20;;;6.88;75.14
77019;BME280;66044;53.142;17.962;2023-01-10T12:10:26;101053.26;;;6.91;75.09
77019;BME280;66044;53.142;17.962;2023-01-10T12:12:59;101064.25;;;6.95;74.86
77019;BME280;66044;53.142;17.962;2023-01-10T12:15:30;101064.14;;;6.99;74.85
77019;BME280;66044;53.142;17.962;2023-01-10T12:17:58;101065.42;;;6.98;74.75
77019;BME280;66044;53.142;17.962;2023-01-10T12:20:33;101062.51;;;6.98;74.93
77019;BME280;66044;53.142;17.962;2023-01-10T12:23:07;101059.70;;;6.96;74.92
77019;BME280;66044;53.142;17.962;2023-01-10T12:25:42;101063.02;;;6.95;74.85
77019;BME280;66044;53.142;17.962;2023-01-10T12:28:22;101063.56;;;6.93;75.08
77019;BME280;66044;53.142;17.962;2023-01-10T12:30:49;101056.17;;;6.89;75.39
77019;BME280;66044;53.142;17.962;2023-01-10T12:33:21;101058.02;;;6.87;75.25
77019;BME280;66044;53.142;17.962;2023-01-10T12:36:11;101064.20;;;6.88;75.35
77019;BME280;66044;53.142;17.962;2023-01-10T12:39:13;101072.45;;;6.90;75.04
77019;BME280;66044;53.142;17.962;2023-01-10T12:49:49;101085.20;;;7.00;75.24
77019;BME280;66044;53.142;17.962;2023-01-10T12:52:45;101087.63;;;7.00;75.37
77019;BME280;66044;53.142;17.962;2023-01-10T12:55:15;101082.10;;;6.98;75.42
77019;BME280;66044;53.142;17.962;2023-01-10T12:57:44;101085.02;;;6.96;75.36
77019;BME280;66044;53.142;17.962;2023-01-10T13:00:19;101083.86;;;6.93;75.34
77019;BME280;66044;53.142;17.962;2023-01-10T13:02:48;101086.12;;;6.91;75.39
77019;BME280;66044;53.142;17.962;2023-01-10T13:05:21;101085.50;;;6.91;75.34
77019;BME280;66044;53.142;17.962;2023-01-10T13:07:50;101090.53;;;6.94;75.42
77019;BME280;66044;53.142;17.962;2023-01-10T13:10:20;101091.36;;;6.96;75.22
77019;BME280;66044;53.142;17.962;2023-01-10T13:12:52;101094.30;;;6.99;75.26
77019;BME280;66044;53.142;17.962;2023-01-10T13:15:32;101101.38;;;7.00;75.06
77019;BME280;66044;53.142;17.962;2023-01-10T13:18:04;101101.11;;;6.98;75.17
77019;BME280;66044;53.142;17.962;2023-01-10T13:20:43;101101.40;;;6.97;75.21
77019;BME280;66044;53.142;17.962;2023-01-10T13:23:34;101105.06;;;6.94;75.28
77019;BME280;66044;53.142;17.962;2023-01-10T13:26:08;101101.63;;;6.92;75.24
77019;BME280;66044;53.142;17.962;2023-01-10T13:28:39;101101.23;;;6.90;75.02
77019;BME280;66044;53.142;17.962;2023-01-10T13:33:52;101102.60;;;6.95;75.25
77019;BME280;66044;53.142;17.962;2023-01-10T13:36:25;101107.63;;;7.01;75.25
77019;BME280;66044;53.142;17.962;2023-01-10T13:38:57;101106.18;;;7.09;75.24
77019;BME280;66044;53.142;17.962;2023-01-10T13:42:21;101113.85;;;7.16;75.07
77019;BME280;66044;53.142;17.962;2023-01-10T13:52:50;101140.77;;;6.99;74.88
77019;BME280;66044;53.142;17.962;2023-01-10T14:00:48;101143.91;;;6.82;75.35
77019;BME280;66044;53.142;17.962;2023-01-10T14:03:43;101147.25;;;6.80;75.47
77019;BME280;66044;53.142;17.962;2023-01-10T14:08:53;101166.39;;;6.85;75.33
77019;BME280;66044;53.142;17.962;2023-01-10T14:11:21;101176.82;;;6.89;75.52
77019;BME280;66044;53.142;17.962;2023-01-10T14:13:52;101184.42;;;6.87;75.09
77019;BME280;66044;53.142;17.962;2023-01-10T14:16:39;101188.98;;;6.85;75.52
77019;BME280;66044;53.142;17.962;2023-01-10T14:19:28;101192.33;;;6.84;75.40
77019;BME280;66044;53.142;17.962;2023-01-10T14:21:58;101190.85;;;6.82;75.40
77019;BME280;66044;53.142;17.962;2023-01-10T14:24:28;101198.67;;;6.79;75.70
77019;BME280;66044;53.142;17.962;2023-01-10T14:26:58;101202.96;;;6.77;75.77
77019;BME280;66044;53.142;17.962;2023-01-10T14:29:28;101208.25;;;6.75;75.57